createdAt,value
2022-11-09T00:00:02.390Z,10.91
2022-11-09T00:02:31.763Z,10.93
2022-11-09T00:04:58.844Z,10.86
2022-11-09T00:07:25.881Z,10.81
2022-11-09T00:09:53.030Z,10.83
2022-11-09T00:12:20.105Z,10.80
2022-11-09T00:14:47.235Z,10.77
2022-11-09T00:17:14.476Z,10.77
2022-11-09T00:19:41.530Z,10.74
2022-11-09T00:22:08.585Z,10.77
2022-11-09T00:24:35.736Z,10.78
2022-11-09T00:27:02.825Z,10.77
2022-11-09T00:29:29.926Z,10.74
2022-11-09T00:31:56.974Z,10.74
2022-11-09T00:34:24.092Z,10.78
2022-11-09T00:36:51.131Z,10.82
2022-11-09T00:39:18.299Z,10.71
2022-11-09T00:41:45.359Z,10.73
2022-11-09T00:44:12.460Z,10.79
2022-11-09T00:46:39.714Z,10.71
2022-11-09T00:49:06.939Z,10.71
2022-11-09T00:51:34.096Z,10.75
2022-11-09T00:54:01.189Z,10.73
2022-11-09T00:56:29.193Z,10.71
2022-11-09T00:58:56.366Z,10.62
2022-11-09T01:01:23.836Z,10.64
2022-11-09T01:03:51.109Z,10.59
2022-11-09T01:06:23.756Z,10.68
2022-11-09T01:08:51.974Z,10.65
2022-11-09T01:11:20.264Z,10.56
2022-11-09T01:13:47.892Z,10.68
2022-11-09T01:16:18.161Z,10.60
2022-11-09T01:18:46.020Z,10.67
2022-11-09T01:21:15.359Z,10.59
2022-11-09T01:23:43.087Z,10.58
2022-11-09T01:26:12.628Z,10.58
2022-11-09T01:28:39.996Z,10.56
2022-11-09T01:31:14.451Z,10.52
2022-11-09T01:33:42.417Z,10.57
2022-11-09T01:36:12.801Z,10.51
2022-11-09T01:38:40.274Z,10.50
2022-11-09T01:41:13.853Z,10.43
2022-11-09T01:43:41.104Z,10.43
2022-11-09T01:46:28.383Z,10.45
2022-11-09T01:49:03.359Z,10.54
2022-11-09T01:51:50.674Z,10.52
2022-11-09T01:54:23.381Z,10.54
2022-11-09T01:56:54.233Z,10.39
2022-11-09T01:59:27.378Z,10.42
2022-11-09T02:01:54.624Z,10.33
2022-11-09T02:04:27.589Z,10.37
2022-11-09T02:06:57.269Z,10.38
2022-11-09T02:09:31.072Z,10.40
2022-11-09T02:12:00.117Z,10.40
2022-11-09T02:14:29.906Z,10.43
2022-11-09T02:16:57.144Z,10.41
2022-11-09T02:19:24.277Z,10.48
2022-11-09T02:21:51.649Z,10.45
2022-11-09T02:24:19.382Z,10.45
2022-11-09T02:26:52.120Z,10.47
2022-11-09T02:29:27.539Z,10.51
2022-11-09T02:31:59.707Z,10.42
2022-11-09T02:34:27.933Z,10.43
2022-11-09T02:36:55.180Z,10.55
2022-11-09T02:39:25.550Z,10.59
2022-11-09T02:42:02.969Z,10.53
2022-11-09T02:44:38.260Z,10.55
2022-11-09T02:47:05.319Z,10.60
2022-11-09T02:49:32.413Z,10.63
2022-11-09T02:51:59.755Z,10.60
2022-11-09T02:54:26.807Z,10.55
2022-11-09T02:56:54.771Z,10.53
2022-11-09T02:59:22.349Z,10.56
2022-11-09T03:01:49.609Z,10.57
2022-11-09T03:04:16.716Z,10.53
2022-11-09T03:06:44.168Z,10.51
2022-11-09T03:09:14.919Z,10.50
2022-11-09T03:11:43.029Z,10.53
2022-11-09T03:14:12.263Z,10.51
2022-11-09T03:16:50.233Z,10.48
2022-11-09T03:19:18.103Z,10.45
2022-11-09T03:21:47.078Z,10.45
2022-11-09T03:24:14.168Z,10.59
2022-11-09T03:26:42.245Z,10.53
2022-11-09T03:29:09.382Z,10.55
2022-11-09T03:31:36.984Z,10.57
2022-11-09T03:34:07.790Z,10.61
2022-11-09T03:36:35.856Z,10.55
2022-11-09T03:39:03.435Z,10.58
2022-11-09T03:41:30.667Z,10.60
2022-11-09T03:43:57.756Z,10.61
2022-11-09T03:46:24.830Z,10.58
2022-11-09T03:48:51.884Z,10.62
2022-11-09T03:51:19.280Z,10.49
2022-11-09T03:53:46.394Z,10.55
2022-11-09T03:56:13.469Z,10.54
2022-11-09T03:58:40.532Z,10.46
2022-11-09T04:01:07.718Z,10.53
2022-11-09T04:03:34.887Z,10.48
2022-11-09T04:06:01.960Z,10.44
2022-11-09T04:08:29.062Z,10.46
2022-11-09T04:10:56.136Z,10.46
2022-11-09T04:13:23.196Z,10.47
2022-11-09T04:15:50.290Z,10.46
2022-11-09T04:18:17.483Z,10.41
2022-11-09T04:20:45.073Z,10.44
2022-11-09T04:23:13.818Z,10.46
2022-11-09T04:25:41.732Z,10.41
2022-11-09T04:28:12.341Z,10.47
2022-11-09T04:30:39.502Z,10.42
2022-11-09T04:33:06.560Z,10.43
2022-11-09T04:35:34.738Z,10.40
2022-11-09T04:38:06.832Z,10.40
2022-11-09T04:40:35.712Z,10.41
2022-11-09T04:43:04.975Z,10.35
2022-11-09T04:45:35.742Z,10.27
2022-11-09T04:48:05.289Z,10.25
2022-11-09T04:50:32.677Z,10.38
2022-11-09T04:53:08.329Z,10.33
2022-11-09T04:55:35.894Z,10.40
2022-11-09T04:58:03.112Z,10.38
2022-11-09T05:00:31.011Z,10.40
2022-11-09T05:03:05.357Z,10.35
2022-11-09T05:05:37.231Z,10.35
2022-11-09T05:08:05.843Z,10.34
2022-11-09T05:10:32.951Z,10.31
2022-11-09T05:13:02.186Z,10.30
2022-11-09T05:15:29.299Z,10.24
2022-11-09T05:17:57.038Z,10.22
2022-11-09T05:20:24.777Z,10.21
2022-11-09T05:23:10.929Z,10.27
2022-11-09T05:25:38.010Z,10.28
2022-11-09T05:28:05.647Z,10.25
2022-11-09T05:30:32.772Z,10.28
2022-11-09T05:32:59.831Z,10.23
2022-11-09T05:35:26.890Z,10.25
2022-11-09T05:37:53.959Z,10.29
2022-11-09T05:40:21.264Z,10.38
2022-11-09T05:42:48.320Z,10.34
2022-11-09T05:48:05.169Z,10.36
2022-11-09T05:50:32.433Z,10.27
2022-11-09T05:53:18.090Z,10.34
2022-11-09T05:55:45.427Z,10.35
2022-11-09T05:58:12.556Z,10.37
2022-11-09T06:00:39.689Z,10.35
2022-11-09T06:03:08.504Z,10.41
2022-11-09T06:05:36.685Z,10.44
2022-11-09T06:08:05.626Z,10.42
2022-11-09T06:10:32.912Z,10.42
2022-11-09T06:12:59.966Z,10.40
2022-11-09T06:15:27.141Z,10.44
2022-11-09T06:17:55.352Z,10.39
2022-11-09T06:20:23.124Z,10.40
2022-11-09T06:22:56.564Z,10.41
2022-11-09T06:25:28.112Z,10.38
2022-11-09T06:27:55.785Z,10.42
2022-11-09T06:30:23.353Z,10.39
2022-11-09T06:32:50.388Z,10.41
2022-11-09T06:35:17.491Z,10.38
2022-11-09T06:37:44.528Z,10.38
2022-11-09T06:40:12.580Z,10.34
2022-11-09T06:42:39.723Z,10.35
2022-11-09T06:45:07.330Z,10.37
2022-11-09T06:47:34.369Z,10.39
2022-11-09T06:50:01.472Z,10.31
2022-11-09T06:52:28.510Z,10.29
2022-11-09T06:54:55.572Z,10.26
2022-11-09T06:57:22.649Z,10.30
2022-11-09T06:59:49.737Z,10.29
2022-11-09T07:02:18.165Z,10.32
2022-11-09T07:04:45.580Z,10.31
2022-11-09T07:07:12.984Z,10.30
2022-11-09T07:09:40.072Z,10.32
2022-11-09T07:12:07.222Z,10.41
2022-11-09T07:14:34.364Z,10.37
2022-11-09T07:17:01.737Z,10.41
2022-11-09T07:19:29.867Z,10.39
2022-11-09T07:21:57.414Z,10.45
2022-11-09T07:24:24.473Z,10.47
2022-11-09T07:26:51.762Z,10.44
2022-11-09T07:29:18.881Z,10.48
2022-11-09T07:31:45.995Z,10.51
2022-11-09T07:34:13.143Z,10.50
2022-11-09T07:36:40.385Z,10.58
2022-11-09T07:39:07.512Z,10.55
2022-11-09T07:41:35.103Z,10.57
2022-11-09T07:44:02.345Z,10.58
2022-11-09T07:46:29.520Z,10.54
2022-11-09T07:48:56.654Z,10.60
2022-11-09T07:51:23.731Z,10.55
2022-11-09T07:53:50.784Z,10.47
2022-11-09T07:56:18.067Z,10.49
2022-11-09T07:58:45.149Z,10.42
2022-11-09T08:01:12.552Z,10.46
2022-11-09T08:03:39.834Z,10.46
2022-11-09T08:06:07.218Z,10.44
2022-11-09T08:08:34.310Z,10.40
2022-11-09T08:11:01.382Z,10.36
2022-11-09T08:13:28.483Z,10.35
2022-11-09T08:15:55.546Z,10.39
2022-11-09T08:18:23.465Z,10.49
2022-11-09T08:20:50.710Z,10.57
2022-11-09T08:23:19.382Z,10.69
2022-11-09T08:25:48.135Z,10.78
2022-11-09T08:28:18.719Z,10.75
2022-11-09T08:30:46.672Z,10.90
2022-11-09T08:33:14.168Z,10.90
2022-11-09T08:35:41.262Z,10.75
2022-11-09T08:38:09.527Z,10.83
2022-11-09T08:40:36.886Z,10.70
2022-11-09T08:43:07.634Z,10.70
2022-11-09T08:45:36.576Z,10.77
2022-11-09T08:48:04.929Z,10.82
2022-11-09T08:50:34.310Z,10.86
2022-11-09T08:53:03.234Z,11.05
2022-11-09T08:55:31.245Z,11.03
2022-11-09T08:57:59.897Z,11.10
2022-11-09T09:00:27.366Z,11.14
2022-11-09T09:02:54.705Z,10.99
2022-11-09T09:05:22.658Z,10.90
2022-11-09T09:07:49.746Z,10.99
2022-11-09T09:10:16.868Z,10.90
2022-11-09T09:12:43.977Z,11.12
2022-11-09T09:15:11.091Z,11.19
2022-11-09T09:17:38.248Z,11.10
2022-11-09T09:20:05.828Z,11.03
2022-11-09T09:22:33.477Z,11.10
2022-11-09T09:25:00.587Z,11.15
2022-11-09T09:27:29.374Z,11.11
2022-11-09T09:29:56.918Z,11.19
2022-11-09T09:32:24.139Z,11.46
2022-11-09T09:34:51.294Z,11.47
2022-11-09T09:37:18.838Z,11.48
2022-11-09T09:39:45.906Z,11.74
2022-11-09T09:42:18.820Z,11.72
2022-11-09T09:45:00.072Z,11.72
2022-11-09T09:47:46.089Z,11.68
2022-11-09T09:50:20.794Z,11.81
2022-11-09T09:53:17.724Z,11.84
2022-11-09T09:55:44.472Z,11.73
2022-11-09T09:58:12.930Z,11.53
2022-11-09T10:00:41.485Z,11.81
2022-11-09T10:03:17.610Z,11.85
2022-11-09T10:05:57.093Z,11.76
2022-11-09T10:08:31.318Z,11.67
2022-11-09T10:11:22.322Z,11.54
2022-11-09T10:13:55.380Z,11.48
2022-11-09T10:16:57.989Z,11.47
2022-11-09T10:19:51.138Z,11.59
2022-11-09T10:22:39.648Z,11.49
2022-11-09T10:25:27.566Z,11.52
2022-11-09T10:28:13.086Z,11.47
2022-11-09T10:30:40.698Z,11.43
2022-11-09T10:33:10.703Z,11.46
2022-11-09T10:35:45.001Z,11.63
2022-11-09T10:38:21.209Z,11.64
2022-11-09T10:41:26.052Z,11.68
2022-11-09T10:44:17.771Z,11.71
2022-11-09T10:47:09.746Z,11.63
2022-11-09T10:50:22.086Z,11.70
2022-11-09T10:53:20.950Z,11.76
2022-11-09T10:56:21.781Z,11.59
2022-11-09T10:59:35.819Z,11.73
2022-11-09T11:02:24.296Z,11.63
2022-11-09T11:05:09.912Z,11.66
2022-11-09T11:07:55.673Z,11.66
2022-11-09T11:10:41.266Z,11.50
2022-11-09T11:13:27.177Z,11.56
2022-11-09T11:16:15.798Z,11.47
2022-11-09T11:19:02.099Z,11.74
2022-11-09T11:22:19.631Z,11.84
2022-11-09T11:25:19.808Z,11.88
2022-11-09T11:28:21.795Z,11.98
2022-11-09T11:31:19.039Z,11.76
2022-11-09T11:34:10.456Z,11.94
2022-11-09T11:37:08.206Z,12.08
2022-11-09T11:40:05.596Z,11.86
2022-11-09T11:43:18.988Z,11.81
2022-11-09T11:46:27.586Z,11.65
2022-11-09T11:49:22.505Z,11.63
2022-11-09T11:52:37.219Z,11.51
2022-11-09T11:55:34.847Z,11.54
2022-11-09T11:58:55.105Z,11.34
2022-11-09T12:01:50.552Z,11.40
2022-11-09T12:04:42.349Z,11.30
2022-11-09T12:07:43.073Z,11.26
2022-11-09T12:10:57.063Z,11.34
2022-11-09T12:13:57.130Z,11.35
2022-11-09T12:17:22.886Z,11.25
2022-11-09T12:20:34.367Z,11.20
2022-11-09T12:23:24.200Z,11.29
2022-11-09T12:26:45.468Z,11.30
2022-11-09T12:29:44.286Z,11.23
2022-11-09T12:32:50.790Z,11.25
2022-11-09T12:35:55.938Z,11.17
2022-11-09T12:38:49.142Z,11.24
2022-11-09T12:41:37.752Z,11.14
2022-11-09T12:44:32.255Z,11.13
2022-11-09T12:47:27.064Z,11.14
2022-11-09T12:50:16.443Z,11.16
2022-11-09T12:53:04.305Z,11.10
2022-11-09T12:56:02.465Z,10.99
2022-11-09T12:58:48.340Z,11.00
2022-11-09T13:01:33.897Z,10.92
2022-11-09T13:04:22.101Z,10.90
2022-11-09T13:07:14.041Z,10.87
2022-11-09T13:10:02.264Z,10.82
2022-11-09T13:12:47.771Z,10.66
2022-11-09T13:15:34.722Z,10.69
2022-11-09T13:18:34.981Z,10.59
2022-11-09T13:21:21.677Z,10.56
2022-11-09T13:24:32.377Z,10.60
2022-11-09T13:27:33.470Z,10.58
2022-11-09T13:30:24.970Z,10.58
2022-11-09T13:33:22.721Z,10.54
2022-11-09T13:36:09.300Z,10.54
2022-11-09T13:39:23.419Z,10.58
2022-11-09T13:42:28.462Z,10.59
2022-11-09T13:45:41.442Z,10.67
2022-11-09T13:48:46.278Z,10.69
2022-11-09T13:51:34.831Z,10.66
2022-11-09T13:54:37.433Z,10.74
2022-11-09T13:57:25.456Z,10.77
2022-11-09T14:00:23.431Z,10.76
2022-11-09T14:03:24.906Z,10.68
2022-11-09T14:06:12.597Z,10.76
2022-11-09T14:08:59.668Z,10.79
2022-11-09T14:12:02.645Z,10.69
2022-11-09T14:14:57.371Z,10.71
2022-11-09T14:17:54.814Z,10.79
2022-11-09T14:21:09.712Z,10.65
2022-11-09T14:24:01.155Z,10.69
2022-11-09T14:27:14.418Z,10.70
2022-11-09T14:30:03.765Z,10.67
2022-11-09T14:32:51.607Z,10.61
2022-11-09T14:35:39.161Z,10.68
2022-11-09T14:38:28.874Z,10.59
2022-11-09T14:41:22.643Z,10.53
2022-11-09T14:44:28.223Z,10.54
2022-11-09T14:47:25.165Z,10.47
2022-11-09T14:50:17.900Z,10.39
2022-11-09T14:53:05.682Z,10.40
2022-11-09T14:55:53.458Z,10.33
2022-11-09T14:58:42.274Z,10.28
2022-11-09T15:01:28.789Z,10.27
2022-11-09T15:04:20.807Z,10.25
2022-11-09T15:07:06.909Z,10.27
2022-11-09T15:10:00.531Z,10.25
2022-11-09T15:12:56.177Z,10.26
2022-11-09T15:15:49.643Z,10.21
2022-11-09T15:18:41.649Z,10.19
2022-11-09T15:21:27.170Z,10.11
2022-11-09T15:24:16.812Z,10.06
2022-11-09T15:27:02.778Z,10.09
2022-11-09T15:29:48.518Z,10.05
2022-11-09T15:32:37.958Z,9.96
2022-11-09T15:35:23.624Z,9.91
2022-11-09T15:38:30.851Z,9.92
2022-11-09T15:41:19.381Z,9.91
2022-11-09T15:44:05.950Z,9.80
2022-11-09T15:46:53.380Z,9.74
2022-11-09T15:49:39.607Z,9.71
2022-11-09T15:52:25.675Z,9.67
2022-11-09T15:55:15.967Z,9.70
2022-11-09T15:58:01.628Z,9.59
2022-11-09T16:00:47.633Z,9.53
2022-11-09T16:03:33.289Z,9.59
2022-11-09T16:06:22.166Z,9.59
2022-11-09T16:09:08.183Z,9.58
2022-11-09T16:11:53.768Z,9.61
2022-11-09T16:14:40.274Z,9.55
2022-11-09T16:17:25.872Z,9.58
2022-11-09T16:20:11.888Z,9.55
2022-11-09T16:22:57.433Z,9.51
2022-11-09T16:25:44.660Z,9.50
2022-11-09T16:28:30.175Z,9.57
2022-11-09T16:31:16.038Z,9.34
2022-11-09T16:34:01.496Z,9.44
2022-11-09T16:36:53.843Z,9.45
2022-11-09T16:39:42.276Z,9.42
2022-11-09T16:42:28.082Z,9.39
2022-11-09T16:45:16.518Z,9.34
2022-11-09T16:48:10.215Z,9.34
2022-11-09T16:50:56.105Z,9.37
2022-11-09T16:53:41.733Z,9.39
2022-11-09T16:56:27.573Z,9.44
2022-11-09T16:59:14.346Z,9.55
2022-11-09T17:01:59.855Z,9.58
2022-11-09T17:04:45.748Z,9.52
2022-11-09T17:07:42.167Z,9.50
2022-11-09T17:10:28.639Z,9.40
2022-11-09T17:13:14.243Z,9.39
2022-11-09T17:16:06.945Z,9.33
2022-11-09T17:18:54.009Z,9.29
2022-11-09T17:21:39.763Z,9.33
2022-11-09T17:24:26.765Z,9.37
2022-11-09T17:27:12.878Z,9.31
2022-11-09T17:29:58.652Z,9.20
2022-11-09T17:32:46.058Z,9.17
2022-11-09T17:35:36.412Z,9.13
2022-11-09T17:38:22.363Z,9.17
2022-11-09T17:41:19.639Z,9.20
2022-11-09T17:44:05.805Z,9.19
2022-11-09T17:46:51.528Z,9.20
2022-11-09T17:49:37.143Z,9.16
2022-11-09T17:52:22.901Z,9.18
2022-11-09T17:55:08.588Z,9.17
2022-11-09T17:57:54.357Z,9.21
2022-11-09T18:00:40.295Z,9.27
2022-11-09T18:03:26.105Z,9.16
2022-11-09T18:06:23.973Z,9.17
2022-11-09T18:12:16.328Z,9.12
2022-11-09T18:15:01.853Z,9.19
2022-11-09T18:17:47.575Z,9.14
2022-11-09T18:20:33.624Z,9.13
2022-11-09T18:23:19.477Z,9.15
2022-11-09T18:26:07.297Z,9.23
2022-11-09T18:28:55.719Z,9.27
2022-11-09T18:31:41.483Z,9.15
2022-11-09T18:34:27.127Z,9.22
2022-11-09T18:37:12.821Z,9.13
2022-11-09T18:39:58.705Z,9.03
2022-11-09T18:42:44.388Z,9.16
2022-11-09T18:45:30.298Z,9.10
2022-11-09T18:48:15.961Z,9.17
2022-11-09T18:51:01.870Z,9.24
2022-11-09T18:53:48.392Z,9.24
2022-11-09T18:56:33.717Z,9.22
2022-11-09T18:59:19.906Z,9.25
2022-11-09T19:02:07.271Z,9.10
2022-11-09T19:04:52.714Z,9.11
2022-11-09T19:07:39.153Z,9.11
2022-11-09T19:10:24.843Z,9.05
2022-11-09T19:13:10.411Z,9.04
2022-11-09T19:15:58.382Z,9.02
2022-11-09T19:18:44.468Z,9.05
2022-11-09T19:21:38.255Z,9.14
2022-11-09T19:24:25.547Z,9.07
2022-11-09T19:27:11.151Z,9.09
2022-11-09T19:29:56.980Z,9.08
2022-11-09T19:32:42.471Z,8.97
2022-11-09T19:35:33.480Z,8.88
2022-11-09T19:38:19.966Z,8.87
2022-11-09T19:41:06.537Z,8.82
2022-11-09T19:43:54.588Z,8.85
2022-11-09T19:46:40.796Z,8.81
2022-11-09T19:49:26.580Z,8.85
2022-11-09T19:52:12.666Z,8.87
2022-11-09T19:54:58.674Z,8.82
2022-11-09T19:57:44.319Z,8.74
2022-11-09T20:00:29.982Z,8.70
2022-11-09T20:03:15.720Z,8.66
2022-11-09T20:06:02.362Z,8.68
2022-11-09T20:08:48.010Z,8.67
2022-11-09T20:11:52.318Z,8.66
2022-11-09T20:14:37.967Z,8.66
2022-11-09T20:17:23.904Z,8.51
2022-11-09T20:20:10.541Z,8.49
2022-11-09T20:22:56.192Z,8.42
2022-11-09T20:25:42.102Z,8.41
2022-11-09T20:28:27.802Z,8.47
2022-11-09T20:31:16.577Z,8.32
2022-11-09T20:34:02.415Z,8.30
2022-11-09T20:36:48.127Z,8.27
2022-11-09T20:39:35.293Z,8.31
2022-11-09T20:42:21.005Z,8.14
2022-11-09T20:45:06.927Z,8.13
2022-11-09T20:48:38.210Z,8.10
2022-11-09T20:51:06.502Z,8.08
2022-11-09T20:53:52.209Z,8.10
2022-11-09T20:56:37.908Z,8.10
2022-11-09T20:59:23.608Z,8.04
2022-11-09T21:02:14.457Z,7.98
2022-11-09T21:05:00.852Z,7.92
2022-11-09T21:07:46.536Z,7.89
2022-11-09T21:10:32.330Z,7.85
2022-11-09T21:13:18.208Z,7.95
2022-11-09T21:16:15.705Z,7.88
2022-11-09T21:19:01.362Z,7.88
2022-11-09T21:21:47.062Z,7.85
2022-11-09T21:24:51.397Z,7.85
2022-11-09T21:28:06.339Z,7.85
2022-11-09T21:30:51.995Z,7.86
2022-11-09T21:33:37.397Z,7.80
2022-11-09T21:36:23.460Z,7.80
2022-11-09T21:39:11.328Z,7.74
2022-11-09T21:41:58.075Z,7.72
2022-11-09T21:44:43.967Z,7.76
2022-11-09T21:47:30.078Z,7.77
2022-11-09T21:50:15.711Z,7.69
2022-11-09T21:53:01.533Z,7.66
2022-11-09T21:55:47.349Z,7.66
2022-11-09T21:58:33.352Z,7.71
2022-11-09T22:01:19.849Z,7.65
2022-11-09T22:04:08.374Z,7.62
2022-11-09T22:06:53.861Z,7.59
2022-11-09T22:10:05.963Z,7.60
2022-11-09T22:13:03.650Z,7.60
2022-11-09T22:16:07.699Z,7.55
2022-11-09T22:19:12.149Z,7.57
2022-11-09T22:21:57.914Z,7.52
2022-11-09T22:24:43.711Z,7.46
2022-11-09T22:27:33.072Z,7.48
2022-11-09T22:30:18.669Z,7.44
2022-11-09T22:33:04.260Z,7.43
2022-11-09T22:35:56.892Z,7.43
2022-11-09T22:38:42.339Z,7.47
2022-11-09T22:41:28.066Z,7.46
2022-11-09T22:44:13.955Z,7.43
2022-11-09T22:46:59.554Z,7.35
2022-11-09T22:49:45.275Z,7.28
2022-11-09T22:52:30.668Z,7.18
2022-11-09T22:55:18.216Z,7.19
2022-11-09T22:58:04.341Z,7.12
2022-11-09T23:00:50.556Z,7.21
2022-11-09T23:03:36.423Z,7.22
2022-11-09T23:06:23.429Z,7.22
2022-11-09T23:09:09.004Z,7.39
2022-11-09T23:11:54.828Z,7.43
2022-11-09T23:15:00.978Z,7.41
2022-11-09T23:18:05.538Z,7.31
2022-11-09T23:20:51.200Z,7.23
2022-11-09T23:23:37.493Z,7.20
2022-11-09T23:26:24.036Z,7.17
2022-11-09T23:29:09.813Z,7.17
2022-11-09T23:31:57.134Z,7.05
2022-11-09T23:34:42.776Z,7.15
2022-11-09T23:37:28.562Z,7.15
2022-11-09T23:40:14.475Z,7.20
2022-11-09T23:43:05.884Z,7.15
2022-11-09T23:45:51.381Z,7.06
2022-11-09T23:48:38.232Z,6.94
2022-11-09T23:51:23.756Z,6.84
2022-11-09T23:54:09.469Z,6.93
2022-11-09T23:56:55.346Z,6.84
2022-11-09T23:59:41.220Z,6.95
